Flight Track Log - Related Links

Times and Time Zones

All times are in EDT time to prevent confusion due to time zone crossing. See the AAY846 flight status page for this flight to view local times or setup timezone preferences in your user account.

Time Position Orientation Groundspeed Altitude Reporting Facility
EDT Latitude Longitude Course Direction KTS MPH feet Rate Location/Type
Thu 08:26:27 AM 27.9000 -82.6833 180° South 182 209 500  Level Tampa TRACON
Thu 08:27:39 AM 27.8333 -82.6833 180° South 185 213 3,300 1,759 Climbing Tampa TRACON
Thu 08:29:21 AM 27.8464 -82.7594 281° West 269 310 5,600 2,085 Climbing Miami Center
Thu 08:30:23 AM 27.9436 -82.7692 355° North 286 329 9,000 2,341 Climbing Miami Center
Thu 08:31:24 AM 28.0303 -82.7794 354° North 307 353 10,400 1,846 Climbing Miami Center
Thu 08:32:33 AM 28.1394 -82.7914 354° North 336 387 13,000 1,953 Climbing Jacksonville Center
Thu 08:33:33 AM 28.2417 -82.8383 338° Northwest 358 412 14,600 1,950 Climbing Jacksonville Center
Thu 08:34:33 AM 28.3481 -82.8783 342° North 388 447 16,900 2,034 Climbing Jacksonville Center
Thu 08:35:31 AM 28.4572 -82.9161 343° North 418 481 18,600 1,800 Climbing Miami Center
Thu 08:36:33 AM 28.5861 -82.9658 341° North 424 488 20,500 1,623 Climbing Jacksonville Center
Thu 08:37:33 AM 28.7028 -83.0108 341° North 431 496 21,900 1,300 Climbing Jacksonville Center
Thu 08:38:33 AM 28.8239 -83.0561 342° North 442 509 23,100 1,550 Climbing Jacksonville Center
Thu 08:39:33 AM 28.9469 -83.1014 342° North 449 517 25,000 1,800 Climbing Jacksonville Center
Thu 08:40:33 AM 29.0658 -83.1514 340° North 454 522 26,700 1,700 Climbing Jacksonville Center
Thu 08:41:33 AM 29.1764 -83.2183 332° Northwest 454 522 28,400 1,650 Climbing Jacksonville Center
Thu 08:42:33 AM 29.2847 -83.2806 333° Northwest 437 503 30,000 800 Climbing Jacksonville Center
Thu 08:43:33 AM 29.3950 -83.3456 333° Northwest 437 503 30,000 150 Level Jacksonville Center
Thu 08:44:33 AM 29.5056 -83.4081 334° Northwest 437 503 30,300 650 Climbing Jacksonville Center
Thu 08:45:33 AM 29.6200 -83.4636 337° Northwest 437 503 31,300 800 Climbing Jacksonville Center
Thu 08:46:33 AM 29.7325 -83.5144 339° North 437 503 31,900 350 Climbing Jacksonville Center
Thu 08:47:33 AM 29.8450 -83.5703 337° Northwest 437 503 32,000 50 Climbing Jacksonville Center
Thu 08:48:33 AM 29.9575 -83.6261 337° Northwest 437 503 32,000 -50 Level Jacksonville Center
Thu 08:49:33 AM 30.0678 -83.6797 337° Northwest 437 503 31,900  Descending Jacksonville Center
Thu 08:50:33 AM 30.1781 -83.7336 337° Northwest 437 503 32,000 50 Climbing Jacksonville Center
Thu 08:51:33 AM 30.2906 -83.7900 337° Northwest 437 503 32,000  Level Jacksonville Center
Thu 08:52:33 AM 30.4028 -83.8439 338° Northwest 437 503 32,000 -50 Level Jacksonville Center
Thu 08:53:33 AM 30.5153 -83.8981 337° Northwest 437 503 31,900  Descending Jacksonville Center
Thu 08:54:33 AM 30.6131 -83.9475 336° Northwest 437 503 32,000 50 Climbing Jacksonville Center
Thu 08:55:33 AM 30.7231 -84.0067 335° Northwest 437 503 32,000  Level Jacksonville Center
Thu 08:56:33 AM 30.8353 -84.0611 337° Northwest 437 503 32,000  Level Jacksonville Center
Thu 08:57:33 AM 30.9433 -84.1158 337° Northwest 437 503 32,000  Level Jacksonville Center
Thu 08:58:33 AM 31.0556 -84.1731 336° Northwest 437 503 32,000  Level Jacksonville Center
Thu 08:59:33 AM 31.1678 -84.2281 337° Northwest 437 503 32,000  Level Jacksonville Center
Thu 09:00:33 AM 31.2800 -84.2878 336° Northwest 437 503 32,000  Level Jacksonville Center
Thu 09:01:33 AM 31.3942 -84.3456 337° Northwest 437 503 32,000  Level Jacksonville Center
Thu 09:03:51 AM 31.6497 -84.4781 336° Northwest 436 502 32,000  Level Atlanta Center
Thu 09:04:51 AM 31.7581 -84.5322 337° Northwest 436 502 32,000  Level Atlanta Center
Thu 09:05:51 AM 31.8706 -84.5917 336° Northwest 436 502 32,000  Level Atlanta Center
Thu 09:06:51 AM 31.9811 -84.6461 337° Northwest 436 502 32,000  Level Atlanta Center
Thu 09:07:51 AM 32.0892 -84.7033 336° Northwest 436 502 32,000  Level Atlanta Center
Thu 09:08:51 AM 32.1994 -84.7581 337° Northwest 436 502 32,000  Level Atlanta Center
Thu 09:09:51 AM 32.3056 -84.8153 335° Northwest 430 495 32,000  Level Atlanta Center
Thu 09:10:51 AM 32.4264 -84.8731 338° Northwest 430 495 32,000  Level Atlanta Center
Thu 09:11:51 AM 32.5408 -84.9333 336° Northwest 430 495 32,000  Level Atlanta Center
Thu 09:12:51 AM 32.6447 -84.9861 337° Northwest 425 489 32,000  Level Atlanta Center
Thu 09:13:51 AM 32.7547 -85.0442 336° Northwest 425 489 32,000  Level Atlanta Center
Thu 09:14:51 AM 32.8567 -85.1072 333° Northwest 430 495 32,000  Level Atlanta Center
Thu 09:15:51 AM 32.9792 -85.1606 340° North 430 495 32,000  Level Atlanta Center
Thu 09:16:51 AM 33.0769 -85.2189 333° Northwest 430 495 32,000  Level Atlanta Center
Thu 09:17:51 AM 33.1869 -85.2800 335° Northwest 430 495 32,000  Level Atlanta Center
Thu 09:18:51 AM 33.2989 -85.3386 336° Northwest 435 501 32,000  Level Atlanta Center
Thu 09:19:51 AM 33.4089 -85.3975 336° Northwest 440 506 32,000  Level Atlanta Center
Thu 09:20:51 AM 33.5189 -85.4567 336° Northwest 440 506 32,000  Level Atlanta Center
Thu 09:21:51 AM 33.6308 -85.5158 336° Northwest 440 506 32,000  Level Atlanta Center
Thu 09:22:51 AM 33.7428 -85.5778 335° Northwest 440 506 32,000  Level Atlanta Center
Thu 09:23:51 AM 33.8653 -85.6425 336° Northwest 440 506 32,000  Level Atlanta Center
Thu 09:24:51 AM 33.9750 -85.6997 337° Northwest 440 506 32,000  Level Atlanta Center
Thu 09:25:51 AM 34.0869 -85.7594 336° Northwest 440 506 32,000  Level Atlanta Center
Thu 09:26:51 AM 34.2008 -85.8219 336° Northwest 440 506 32,000  Level Atlanta Center
Thu 09:27:51 AM 34.3106 -85.8847 335° Northwest 440 506 32,000  Level Atlanta Center
Thu 09:28:51 AM 34.4058 -85.9347 337° Northwest 431 496 32,000  Level Atlanta Center
Thu 09:29:51 AM 34.5175 -85.9950 336° Northwest 431 496 32,000  Level Atlanta Center
Thu 09:30:56 AM 34.6519 -86.0692 336° Northwest 438 504 32,000  Level Memphis Center
Thu 09:31:58 AM 34.7622 -86.1292 336° Northwest 438 504 32,000  Level Memphis Center
Thu 09:33:00 AM 34.8736 -86.1914 335° Northwest 438 504 32,000  Level Memphis Center
Thu 09:34:02 AM 34.9783 -86.2511 335° Northwest 438 504 32,000  Level Memphis Center
Thu 09:35:04 AM 35.1089 -86.3236 336° Northwest 438 504 32,000  Level Memphis Center
Thu 09:36:06 AM 35.2206 -86.3858 336° Northwest 438 504 32,000  Level Memphis Center
Thu 09:37:08 AM 35.3331 -86.4489 335° Northwest 438 504 32,000  Level Memphis Center
Thu 09:38:10 AM 35.4439 -86.5122 335° Northwest 438 504 32,000  Level Memphis Center
Thu 09:39:13 AM 35.5556 -86.5747 336° Northwest 438 504 32,000  Level Memphis Center
Thu 09:40:15 AM 35.6653 -86.6367 335° Northwest 435 501 32,000  Level Memphis Center
Thu 09:41:17 AM 35.7769 -86.7000 335° Northwest 435 501 32,000  Level Memphis Center
Thu 09:42:19 AM 35.9058 -86.7736 335° Northwest 434 499 32,000  Level Memphis Center
Thu 09:43:21 AM 36.0167 -86.8381 335° Northwest 434 499 32,000  Level Memphis Center
Thu 09:44:23 AM 36.1294 -86.9031 335° Northwest 437 503 32,000  Level Memphis Center
Thu 09:45:25 AM 36.2433 -86.9700 335° Northwest 437 503 32,000  Level Memphis Center
Thu 09:46:27 AM 36.3606 -87.0361 336° Northwest 443 510 32,000  Level Memphis Center
Thu 09:47:29 AM 36.4736 -87.0992 336° Northwest 440 506 32,000  Level Memphis Center
Thu 09:48:31 AM 36.5856 -87.1644 335° Northwest 439 505 32,000  Level Memphis Center
Thu 09:49:33 AM 36.6969 -87.2292 335° Northwest 439 505 32,000  Level Memphis Center
Thu 09:50:35 AM 36.8069 -87.2928 335° Northwest 437 503 32,000  Level Memphis Center
Thu 09:51:37 AM 36.9178 -87.3586 335° Northwest 437 503 32,000  Level Memphis Center
Thu 09:52:40 AM 37.0294 -87.4244 335° Northwest 437 503 32,000  Level Memphis Center
Thu 09:53:42 AM 37.1594 -87.5003 335° Northwest 437 503 32,000  Level Memphis Center
Thu 09:54:44 AM 37.2714 -87.5675 334° Northwest 438 504 32,000  Level Memphis Center
Thu 09:55:46 AM 37.3836 -87.6339 335° Northwest 439 505 32,000  Level Memphis Center
Thu 09:56:48 AM 37.4964 -87.7019 334° Northwest 442 509 32,000  Level Memphis Center
Thu 09:57:50 AM 37.6000 -87.7642 335° Northwest 442 509 32,000  Level Memphis Center
Thu 09:58:52 AM 37.7347 -87.8458 334° Northwest 443 510 32,000  Level Memphis Center
Thu 09:59:54 AM 37.8336 -87.9050 335° Northwest 442 509 32,000  Level Memphis Center
Thu 10:01:21 AM 38.0081 -88.0111 334° Northwest 443 510 32,000  Level Indianapolis Center
Thu 10:02:23 AM 38.1317 -88.0844 335° Northwest 446 513 32,000  Level Indianapolis Center
Thu 10:03:25 AM 38.2344 -88.1475 334° Northwest 446 513 32,000  Level Indianapolis Center
Thu 10:04:27 AM 38.3453 -88.2153 334° Northwest 446 513 32,000 -242 Level Indianapolis Center
Thu 10:05:29 AM 38.4578 -88.2847 334° Northwest 445 512 31,500 -968 Descending Indianapolis Center
Thu 10:06:31 AM 38.5722 -88.3553 334° Northwest 446 513 30,000 -1,548 Descending Indianapolis Center
Thu 10:07:33 AM 38.7106 -88.4408 334° Northwest 453 521 28,300 -1,403 Descending Indianapolis Center
Thu 10:08:35 AM 38.8258 -88.5122 334° Northwest 455 524 27,100 -1,200 Descending Indianapolis Center
Thu 10:09:38 AM 38.9425 -88.5853 334° Northwest 457 526 25,800 -1,248 Descending Indianapolis Center
Thu 10:10:40 AM 39.0594 -88.6583 334° Northwest 461 531 24,500 -1,258 Descending Indianapolis Center
Thu 10:11:42 AM 39.1767 -88.7317 334° Northwest 463 533 23,200 -1,452 Descending Indianapolis Center
Thu 10:12:44 AM 39.2906 -88.8036 334° Northwest 462 532 21,500 -1,452 Descending Indianapolis Center
Thu 10:13:46 AM 39.3950 -88.8694 334° Northwest 432 497 20,200 -1,579 Descending Indianapolis Center
Thu 10:14:38 AM 39.4747 -88.9214 333° Northwest 392 451 18,500 -2,263 Descending Chicago Center
Thu 10:15:40 AM 39.5864 -88.9931 334° Northwest 376 433 15,900 -2,274 Descending Chicago Center
Thu 10:16:42 AM 39.6778 -89.0511 334° Northwest 368 423 13,800 -1,935 Descending Chicago Center
Thu 10:17:44 AM 39.7669 -89.1092 333° Northwest 362 417 11,900 -919 Descending Chicago Center
Thu 10:18:46 AM 39.8550 -89.1667 333° Northwest 359 413 11,900  Level Chicago Center
Thu 10:19:47 AM 39.9442 -89.2231 334° Northwest 358 412 11,900  Level Chicago Center
Thu 10:20:49 AM 40.0344 -89.2811 334° Northwest 359 413 11,900 -435 Level Chicago Center
Thu 10:21:51 AM 40.1247 -89.3392 334° Northwest 360 414 11,000 -726 Descending Chicago Center
Thu 10:22:53 AM 40.2197 -89.4081 331° Northwest 324 373 10,400 -774 Descending Chicago Center
Thu 10:23:55 AM 40.2858 -89.4656 326° Northwest 292 336 9,400 -1,268 Descending Chicago Center
Thu 10:24:56 AM 40.3506 -89.5211 327° Northwest 281 323 7,800 -1,561 Descending Chicago Center
Thu 10:25:58 AM 40.4139 -89.5797 325° Northwest 281 323 6,200 -1,403 Descending Chicago Center
Thu 10:27:00 AM 40.4753 -89.6375 324° Northwest 278 320 4,900 -1,355 Descending Chicago Center
Thu 10:28:02 AM 40.5342 -89.6931 324° Northwest 267 307 3,400 -1,220 Descending Chicago Center
Thu 10:29:03 AM 40.5936 -89.7381 330° Northwest 262 302 2,400 -878 Descending Chicago Center
Thu 10:30:05 AM 40.6289 -89.6964 42° Northeast 207 238 1,600 -435 Descending Chicago Center
Thu 10:31:07 AM 40.6194 -89.7211 243° Southwest 175 201 1,500 -435 Descending Chicago Center
Thu 10:32:09 AM 40.6525 -89.6939 32° Northeast 157 181 700 -439 Descending Chicago Center
Thu 10:33:10 AM 40.6783 -89.6722 32° Northeast 145 167 600 -98 Descending Chicago Center

Login

Don't have an account? Register now (free) for customized features, flight alerts, and more!